sensor_id;sensor_type;location;lat;lon;timestamp;P1;durP1;ratioP1;P2;durP2;ratioP2
75550;SDS011;65071;53.082;18.218;2023-03-23T00:00:10;20.80;;;11.60;;
75550;SDS011;65071;53.082;18.218;2023-03-23T00:02:57;22.90;;;12.20;;
75550;SDS011;65071;53.082;18.218;2023-03-23T00:05:24;23.20;;;12.60;;
75550;SDS011;65071;53.082;18.218;2023-03-23T00:07:50;20.30;;;11.80;;
75550;SDS011;65071;53.082;18.218;2023-03-23T00:10:18;22.40;;;12.00;;
75550;SDS011;65071;53.082;18.218;2023-03-23T00:12:44;19.70;;;11.50;;
75550;SDS011;65071;53.082;18.218;2023-03-23T00:15:15;22.70;;;12.20;;
75550;SDS011;65071;53.082;18.218;2023-03-23T00:17:43;20.00;;;11.20;;
75550;SDS011;65071;53.082;18.218;2023-03-23T00:20:09;18.50;;;11.80;;
75550;SDS011;65071;53.082;18.218;2023-03-23T00:22:38;18.80;;;12.10;;
75550;SDS011;65071;53.082;18.218;2023-03-23T00:25:05;19.20;;;11.50;;
75550;SDS011;65071;53.082;18.218;2023-03-23T00:27:32;18.40;;;11.30;;
75550;SDS011;65071;53.082;18.218;2023-03-23T00:29:59;21.50;;;11.90;;
75550;SDS011;65071;53.082;18.218;2023-03-23T00:32:25;19.00;;;11.10;;
75550;SDS011;65071;53.082;18.218;2023-03-23T00:34:56;21.80;;;13.30;;
75550;SDS011;65071;53.082;18.218;2023-03-23T00:37:25;19.00;;;12.00;;
75550;SDS011;65071;53.082;18.218;2023-03-23T00:39:53;19.70;;;10.70;;
75550;SDS011;65071;53.082;18.218;2023-03-23T00:42:23;19.60;;;11.30;;
75550;SDS011;65071;53.082;18.218;2023-03-23T00:44:51;18.30;;;11.00;;
75550;SDS011;65071;53.082;18.218;2023-03-23T00:47:26;19.50;;;11.80;;
75550;SDS011;65071;53.082;18.218;2023-03-23T00:49:53;21.40;;;11.60;;
75550;SDS011;65071;53.082;18.218;2023-03-23T00:52:22;17.90;;;10.90;;
75550;SDS011;65071;53.082;18.218;2023-03-23T00:54:49;19.90;;;10.30;;
75550;SDS011;65071;53.082;18.218;2023-03-23T00:57:16;16.80;;;10.40;;
75550;SDS011;65071;53.082;18.218;2023-03-23T00:59:44;17.80;;;10.90;;
75550;SDS011;65071;53.082;18.218;2023-03-23T01:02:10;18.60;;;10.90;;
75550;SDS011;65071;53.082;18.218;2023-03-23T01:04:38;18.00;;;10.70;;
75550;SDS011;65071;53.082;18.218;2023-03-23T01:07:05;17.10;;;10.30;;
75550;SDS011;65071;53.082;18.218;2023-03-23T01:09:34;21.50;;;11.40;;
75550;SDS011;65071;53.082;18.218;2023-03-23T01:12:02;16.70;;;10.50;;
75550;SDS011;65071;53.082;18.218;2023-03-23T01:14:32;29.20;;;16.10;;
75550;SDS011;65071;53.082;18.218;2023-03-23T01:16:59;37.20;;;18.50;;
75550;SDS011;65071;53.082;18.218;2023-03-23T01:19:26;33.70;;;17.70;;
75550;SDS011;65071;53.082;18.218;2023-03-23T01:21:52;40.40;;;19.10;;
75550;SDS011;65071;53.082;18.218;2023-03-23T01:24:19;36.90;;;16.00;;
75550;SDS011;65071;53.082;18.218;2023-03-23T01:26:46;36.10;;;16.20;;
75550;SDS011;65071;53.082;18.218;2023-03-23T01:29:13;28.40;;;14.90;;
75550;SDS011;65071;53.082;18.218;2023-03-23T01:31:40;20.70;;;12.20;;
75550;SDS011;65071;53.082;18.218;2023-03-23T01:34:09;20.00;;;10.90;;
75550;SDS011;65071;53.082;18.218;2023-03-23T01:36:37;21.10;;;11.00;;
75550;SDS011;65071;53.082;18.218;2023-03-23T01:39:04;20.80;;;10.90;;
75550;SDS011;65071;53.082;18.218;2023-03-23T01:41:33;20.00;;;11.80;;
75550;SDS011;65071;53.082;18.218;2023-03-23T01:44:06;20.30;;;11.00;;
75550;SDS011;65071;53.082;18.218;2023-03-23T01:46:57;22.10;;;11.10;;
75550;SDS011;65071;53.082;18.218;2023-03-23T01:49:25;21.60;;;11.50;;
75550;SDS011;65071;53.082;18.218;2023-03-23T01:52:16;23.20;;;11.40;;
75550;SDS011;65071;53.082;18.218;2023-03-23T01:54:49;21.10;;;11.80;;
75550;SDS011;65071;53.082;18.218;2023-03-23T01:57:18;20.40;;;10.50;;
75550;SDS011;65071;53.082;18.218;2023-03-23T01:59:49;16.50;;;10.40;;
75550;SDS011;65071;53.082;18.218;2023-03-23T02:02:24;21.40;;;10.70;;
75550;SDS011;65071;53.082;18.218;2023-03-23T02:04:55;19.90;;;11.30;;
75550;SDS011;65071;53.082;18.218;2023-03-23T02:07:26;18.90;;;10.80;;
75550;SDS011;65071;53.082;18.218;2023-03-23T02:09:53;22.80;;;12.00;;
75550;SDS011;65071;53.082;18.218;2023-03-23T02:12:19;21.60;;;12.40;;
75550;SDS011;65071;53.082;18.218;2023-03-23T02:14:47;20.20;;;11.90;;
75550;SDS011;65071;53.082;18.218;2023-03-23T02:17:26;20.40;;;11.90;;
75550;SDS011;65071;53.082;18.218;2023-03-23T02:25:33;26.90;;;13.20;;
75550;SDS011;65071;53.082;18.218;2023-03-23T02:39:41;28.50;;;13.90;;
75550;SDS011;65071;53.082;18.218;2023-03-23T02:42:20;28.20;;;14.10;;
75550;SDS011;65071;53.082;18.218;2023-03-23T02:44:52;23.60;;;12.40;;
75550;SDS011;65071;53.082;18.218;2023-03-23T02:47:24;22.10;;;12.50;;
75550;SDS011;65071;53.082;18.218;2023-03-23T02:49:54;22.80;;;12.00;;
75550;SDS011;65071;53.082;18.218;2023-03-23T02:52:29;20.10;;;11.10;;
75550;SDS011;65071;53.082;18.218;2023-03-23T02:54:58;17.50;;;10.70;;
75550;SDS011;65071;53.082;18.218;2023-03-23T02:57:26;18.20;;;11.20;;
75550;SDS011;65071;53.082;18.218;2023-03-23T02:59:55;15.80;;;9.70;;
75550;SDS011;65071;53.082;18.218;2023-03-23T03:02:23;18.40;;;10.10;;
75550;SDS011;65071;53.082;18.218;2023-03-23T03:04:59;17.30;;;10.70;;
75550;SDS011;65071;53.082;18.218;2023-03-23T03:12:38;16.80;;;10.20;;
75550;SDS011;65071;53.082;18.218;2023-03-23T03:15:22;14.40;;;9.30;;
75550;SDS011;65071;53.082;18.218;2023-03-23T03:17:57;15.60;;;9.50;;
75550;SDS011;65071;53.082;18.218;2023-03-23T03:20:31;15.10;;;9.10;;
75550;SDS011;65071;53.082;18.218;2023-03-23T03:23:02;17.70;;;10.10;;
75550;SDS011;65071;53.082;18.218;2023-03-23T03:25:31;18.10;;;10.60;;
75550;SDS011;65071;53.082;18.218;2023-03-23T03:27:58;15.40;;;9.00;;
75550;SDS011;65071;53.082;18.218;2023-03-23T03:30:39;16.10;;;9.90;;
75550;SDS011;65071;53.082;18.218;2023-03-23T03:33:07;15.20;;;9.10;;
75550;SDS011;65071;53.082;18.218;2023-03-23T03:35:35;13.70;;;9.50;;
75550;SDS011;65071;53.082;18.218;2023-03-23T03:38:09;14.40;;;9.50;;
75550;SDS011;65071;53.082;18.218;2023-03-23T03:40:37;14.50;;;8.40;;
75550;SDS011;65071;53.082;18.218;2023-03-23T03:43:04;14.90;;;8.80;;
75550;SDS011;65071;53.082;18.218;2023-03-23T03:45:33;13.80;;;8.40;;
75550;SDS011;65071;53.082;18.218;2023-03-23T03:48:00;12.70;;;8.20;;
75550;SDS011;65071;53.082;18.218;2023-03-23T03:50:28;13.20;;;8.20;;
75550;SDS011;65071;53.082;18.218;2023-03-23T03:52:55;15.90;;;8.20;;
75550;SDS011;65071;53.082;18.218;2023-03-23T03:55:21;13.80;;;8.90;;
75550;SDS011;65071;53.082;18.218;2023-03-23T03:57:48;13.80;;;8.10;;
75550;SDS011;65071;53.082;18.218;2023-03-23T04:00:27;14.70;;;8.70;;
75550;SDS011;65071;53.082;18.218;2023-03-23T04:02:54;13.20;;;8.40;;
75550;SDS011;65071;53.082;18.218;2023-03-23T04:05:31;10.80;;;7.20;;
75550;SDS011;65071;53.082;18.218;2023-03-23T04:07:59;14.70;;;8.60;;
75550;SDS011;65071;53.082;18.218;2023-03-23T04:10:29;14.70;;;8.50;;
75550;SDS011;65071;53.082;18.218;2023-03-23T04:12:57;17.00;;;8.90;;
75550;SDS011;65071;53.082;18.218;2023-03-23T04:15:50;16.60;;;8.70;;
75550;SDS011;65071;53.082;18.218;2023-03-23T04:18:17;14.80;;;7.60;;
75550;SDS011;65071;53.082;18.218;2023-03-23T04:20:46;16.30;;;9.70;;
75550;SDS011;65071;53.082;18.218;2023-03-23T04:23:15;17.90;;;9.50;;
75550;SDS011;65071;53.082;18.218;2023-03-23T04:25:48;14.00;;;8.90;;
75550;SDS011;65071;53.082;18.218;2023-03-23T04:28:16;14.50;;;8.80;;
75550;SDS011;65071;53.082;18.218;2023-03-23T04:30:53;13.70;;;7.40;;
75550;SDS011;65071;53.082;18.218;2023-03-23T04:33:21;12.40;;;8.00;;
75550;SDS011;65071;53.082;18.218;2023-03-23T04:35:52;13.70;;;7.80;;
75550;SDS011;65071;53.082;18.218;2023-03-23T04:38:28;13.30;;;7.90;;
75550;SDS011;65071;53.082;18.218;2023-03-23T04:41:00;14.50;;;8.00;;
75550;SDS011;65071;53.082;18.218;2023-03-23T04:43:39;11.80;;;7.70;;
75550;SDS011;65071;53.082;18.218;2023-03-23T04:46:26;13.30;;;8.20;;
75550;SDS011;65071;53.082;18.218;2023-03-23T04:48:55;13.30;;;7.10;;
75550;SDS011;65071;53.082;18.218;2023-03-23T04:51:30;15.80;;;7.20;;
75550;SDS011;65071;53.082;18.218;2023-03-23T04:54:00;12.30;;;7.70;;
75550;SDS011;65071;53.082;18.218;2023-03-23T04:56:28;13.50;;;7.70;;
75550;SDS011;65071;53.082;18.218;2023-03-23T04:58:56;12.30;;;7.70;;
75550;SDS011;65071;53.082;18.218;2023-03-23T05:01:30;12.60;;;7.80;;
75550;SDS011;65071;53.082;18.218;2023-03-23T05:04:16;11.10;;;7.70;;
75550;SDS011;65071;53.082;18.218;2023-03-23T05:06:46;15.40;;;8.50;;
75550;SDS011;65071;53.082;18.218;2023-03-23T05:09:18;11.50;;;7.30;;
75550;SDS011;65071;53.082;18.218;2023-03-23T05:11:45;14.20;;;7.60;;
75550;SDS011;65071;53.082;18.218;2023-03-23T05:14:12;13.10;;;7.60;;
75550;SDS011;65071;53.082;18.218;2023-03-23T05:16:39;14.60;;;7.80;;
75550;SDS011;65071;53.082;18.218;2023-03-23T05:19:07;11.70;;;7.70;;
75550;SDS011;65071;53.082;18.218;2023-03-23T05:21:35;11.30;;;7.10;;
75550;SDS011;65071;53.082;18.218;2023-03-23T05:24:03;13.80;;;8.30;;
75550;SDS011;65071;53.082;18.218;2023-03-23T05:26:31;11.70;;;7.40;;
75550;SDS011;65071;53.082;18.218;2023-03-23T05:29:04;10.90;;;7.50;;
75550;SDS011;65071;53.082;18.218;2023-03-23T05:31:42;14.60;;;8.50;;
75550;SDS011;65071;53.082;18.218;2023-03-23T05:34:08;14.30;;;7.80;;
75550;SDS011;65071;53.082;18.218;2023-03-23T05:36:44;12.00;;;7.90;;
75550;SDS011;65071;53.082;18.218;2023-03-23T05:39:31;13.70;;;7.90;;
75550;SDS011;65071;53.082;18.218;2023-03-23T05:42:14;14.80;;;7.60;;
75550;SDS011;65071;53.082;18.218;2023-03-23T05:44:46;11.60;;;7.60;;
75550;SDS011;65071;53.082;18.218;2023-03-23T05:47:13;11.70;;;7.90;;
75550;SDS011;65071;53.082;18.218;2023-03-23T05:49:42;11.70;;;8.10;;
75550;SDS011;65071;53.082;18.218;2023-03-23T05:52:10;11.50;;;7.90;;
75550;SDS011;65071;53.082;18.218;2023-03-23T05:54:37;14.00;;;8.80;;
75550;SDS011;65071;53.082;18.218;2023-03-23T05:57:03;11.60;;;7.20;;
75550;SDS011;65071;53.082;18.218;2023-03-23T05:59:38;12.60;;;7.80;;
75550;SDS011;65071;53.082;18.218;2023-03-23T06:02:05;11.50;;;7.60;;
75550;SDS011;65071;53.082;18.218;2023-03-23T06:04:32;12.90;;;8.00;;
75550;SDS011;65071;53.082;18.218;2023-03-23T06:07:10;9.70;;;6.80;;
75550;SDS011;65071;53.082;18.218;2023-03-23T06:09:40;13.60;;;7.90;;
75550;SDS011;65071;53.082;18.218;2023-03-23T06:12:25;10.20;;;6.70;;
75550;SDS011;65071;53.082;18.218;2023-03-23T06:15:04;11.90;;;8.10;;
75550;SDS011;65071;53.082;18.218;2023-03-23T06:18:08;11.00;;;6.70;;
75550;SDS011;65071;53.082;18.218;2023-03-23T06:20:42;11.70;;;7.20;;
75550;SDS011;65071;53.082;18.218;2023-03-23T06:23:27;11.60;;;6.60;;
75550;SDS011;65071;53.082;18.218;2023-03-23T06:25:54;10.70;;;6.00;;
75550;SDS011;65071;53.082;18.218;2023-03-23T06:28:24;10.30;;;6.00;;
75550;SDS011;65071;53.082;18.218;2023-03-23T06:30:50;9.90;;;5.50;;
75550;SDS011;65071;53.082;18.218;2023-03-23T06:33:18;11.90;;;7.70;;
75550;SDS011;65071;53.082;18.218;2023-03-23T06:36:16;12.30;;;7.60;;
75550;SDS011;65071;53.082;18.218;2023-03-23T06:38:55;12.50;;;7.20;;
75550;SDS011;65071;53.082;18.218;2023-03-23T06:41:30;13.60;;;7.10;;
75550;SDS011;65071;53.082;18.218;2023-03-23T06:43:58;10.70;;;6.20;;
75550;SDS011;65071;53.082;18.218;2023-03-23T06:46:30;14.30;;;8.20;;
75550;SDS011;65071;53.082;18.218;2023-03-23T06:48:56;11.80;;;7.10;;
75550;SDS011;65071;53.082;18.218;2023-03-23T06:51:30;8.00;;;5.40;;
75550;SDS011;65071;53.082;18.218;2023-03-23T06:53:57;8.10;;;6.00;;
75550;SDS011;65071;53.082;18.218;2023-03-23T06:56:24;10.40;;;6.70;;
75550;SDS011;65071;53.082;18.218;2023-03-23T06:58:52;9.60;;;5.60;;
75550;SDS011;65071;53.082;18.218;2023-03-23T07:01:19;13.80;;;8.00;;
75550;SDS011;65071;53.082;18.218;2023-03-23T07:03:53;8.30;;;4.90;;
75550;SDS011;65071;53.082;18.218;2023-03-23T07:06:27;9.10;;;5.70;;
75550;SDS011;65071;53.082;18.218;2023-03-23T07:08:57;8.30;;;5.20;;
75550;SDS011;65071;53.082;18.218;2023-03-23T07:11:26;8.40;;;4.70;;
75550;SDS011;65071;53.082;18.218;2023-03-23T07:13:54;8.20;;;4.70;;
75550;SDS011;65071;53.082;18.218;2023-03-23T07:16:22;6.30;;;4.40;;
75550;SDS011;65071;53.082;18.218;2023-03-23T07:18:51;8.20;;;5.10;;
75550;SDS011;65071;53.082;18.218;2023-03-23T07:21:21;8.20;;;4.80;;
75550;SDS011;65071;53.082;18.218;2023-03-23T07:23:48;8.80;;;4.90;;
75550;SDS011;65071;53.082;18.218;2023-03-23T07:26:26;7.90;;;4.90;;
75550;SDS011;65071;53.082;18.218;2023-03-23T07:28:54;7.10;;;4.50;;
75550;SDS011;65071;53.082;18.218;2023-03-23T07:31:25;5.90;;;3.50;;
75550;SDS011;65071;53.082;18.218;2023-03-23T07:33:52;5.00;;;3.70;;
75550;SDS011;65071;53.082;18.218;2023-03-23T07:36:20;6.20;;;3.90;;
75550;SDS011;65071;53.082;18.218;2023-03-23T07:38:47;5.90;;;3.20;;
75550;SDS011;65071;53.082;18.218;2023-03-23T07:41:15;7.40;;;4.40;;
75550;SDS011;65071;53.082;18.218;2023-03-23T07:43:42;5.20;;;3.20;;
75550;SDS011;65071;53.082;18.218;2023-03-23T07:46:11;5.60;;;3.60;;
75550;SDS011;65071;53.082;18.218;2023-03-23T07:49:11;6.40;;;3.50;;
75550;SDS011;65071;53.082;18.218;2023-03-23T07:51:43;7.40;;;3.00;;
75550;SDS011;65071;53.082;18.218;2023-03-23T07:54:12;4.20;;;2.70;;
75550;SDS011;65071;53.082;18.218;2023-03-23T07:57:18;4.00;;;2.30;;
75550;SDS011;65071;53.082;18.218;2023-03-23T07:59:50;5.00;;;2.70;;
75550;SDS011;65071;53.082;18.218;2023-03-23T08:02:17;5.50;;;2.80;;
75550;SDS011;65071;53.082;18.218;2023-03-23T08:05:12;3.80;;;2.40;;
75550;SDS011;65071;53.082;18.218;2023-03-23T08:08:11;5.00;;;2.00;;
75550;SDS011;65071;53.082;18.218;2023-03-23T08:10:57;3.60;;;1.70;;
75550;SDS011;65071;53.082;18.218;2023-03-23T08:13:52;3.60;;;1.90;;
75550;SDS011;65071;53.082;18.218;2023-03-23T08:16:38;3.90;;;2.10;;
75550;SDS011;65071;53.082;18.218;2023-03-23T08:19:24;3.10;;;1.50;;
75550;SDS011;65071;53.082;18.218;2023-03-23T08:22:20;4.60;;;1.50;;
75550;SDS011;65071;53.082;18.218;2023-03-23T08:25:13;2.10;;;1.30;;
75550;SDS011;65071;53.082;18.218;2023-03-23T08:28:00;2.40;;;1.70;;
75550;SDS011;65071;53.082;18.218;2023-03-23T08:30:51;4.30;;;1.10;;
75550;SDS011;65071;53.082;18.218;2023-03-23T08:33:25;2.50;;;1.30;;
75550;SDS011;65071;53.082;18.218;2023-03-23T08:36:09;1.90;;;1.40;;
75550;SDS011;65071;53.082;18.218;2023-03-23T08:38:54;2.20;;;1.60;;
75550;SDS011;65071;53.082;18.218;2023-03-23T08:41:36;1.60;;;1.20;;
75550;SDS011;65071;53.082;18.218;2023-03-23T08:44:19;3.10;;;1.40;;
75550;SDS011;65071;53.082;18.218;2023-03-23T08:47:16;2.20;;;1.50;;
75550;SDS011;65071;53.082;18.218;2023-03-23T08:50:03;3.10;;;1.40;;
75550;SDS011;65071;53.082;18.218;2023-03-23T08:53:01;2.10;;;1.40;;
75550;SDS011;65071;53.082;18.218;2023-03-23T08:55:35;2.50;;;1.40;;
75550;SDS011;65071;53.082;18.218;2023-03-23T08:58:20;3.10;;;1.60;;
75550;SDS011;65071;53.082;18.218;2023-03-23T09:01:16;2.00;;;1.40;;
75550;SDS011;65071;53.082;18.218;2023-03-23T09:03:43;2.80;;;1.70;;
75550;SDS011;65071;53.082;18.218;2023-03-23T09:06:22;2.40;;;1.30;;
75550;SDS011;65071;53.082;18.218;2023-03-23T09:08:49;2.60;;;1.50;;
75550;SDS011;65071;53.082;18.218;2023-03-23T09:11:16;2.50;;;1.60;;
75550;SDS011;65071;53.082;18.218;2023-03-23T09:13:43;2.60;;;1.20;;
75550;SDS011;65071;53.082;18.218;2023-03-23T09:16:10;2.00;;;1.40;;
75550;SDS011;65071;53.082;18.218;2023-03-23T09:18:37;2.70;;;1.60;;
75550;SDS011;65071;53.082;18.218;2023-03-23T09:21:04;2.90;;;1.70;;
75550;SDS011;65071;53.082;18.218;2023-03-23T09:23:31;2.60;;;1.50;;
75550;SDS011;65071;53.082;18.218;2023-03-23T09:26:01;3.50;;;1.90;;
75550;SDS011;65071;53.082;18.218;2023-03-23T09:28:29;2.40;;;1.40;;
75550;SDS011;65071;53.082;18.218;2023-03-23T09:30:57;1.70;;;1.30;;
75550;SDS011;65071;53.082;18.218;2023-03-23T09:33:25;2.20;;;1.60;;
75550;SDS011;65071;53.082;18.218;2023-03-23T09:35:53;3.20;;;1.70;;
75550;SDS011;65071;53.082;18.218;2023-03-23T09:38:20;2.30;;;1.60;;
75550;SDS011;65071;53.082;18.218;2023-03-23T09:40:49;1.90;;;1.60;;
75550;SDS011;65071;53.082;18.218;2023-03-23T09:43:33;2.60;;;1.60;;
75550;SDS011;65071;53.082;18.218;2023-03-23T09:48:51;2.50;;;1.40;;
75550;SDS011;65071;53.082;18.218;2023-03-23T09:51:32;3.00;;;1.60;;
75550;SDS011;65071;53.082;18.218;2023-03-23T09:54:21;2.00;;;1.40;;
75550;SDS011;65071;53.082;18.218;2023-03-23T09:56:53;3.60;;;1.60;;
75550;SDS011;65071;53.082;18.218;2023-03-23T10:02:24;2.80;;;1.20;;
75550;SDS011;65071;53.082;18.218;2023-03-23T10:05:17;2.30;;;1.20;;
75550;SDS011;65071;53.082;18.218;2023-03-23T10:07:52;2.40;;;1.10;;
75550;SDS011;65071;53.082;18.218;2023-03-23T10:10:22;3.30;;;1.20;;
75550;SDS011;65071;53.082;18.218;2023-03-23T10:13:01;2.40;;;1.30;;
75550;SDS011;65071;53.082;18.218;2023-03-23T10:15:41;2.20;;;1.40;;
75550;SDS011;65071;53.082;18.218;2023-03-23T10:18:12;2.40;;;1.30;;
75550;SDS011;65071;53.082;18.218;2023-03-23T10:26:24;3.40;;;1.60;;
75550;SDS011;65071;53.082;18.218;2023-03-23T10:31:39;2.10;;;1.30;;
75550;SDS011;65071;53.082;18.218;2023-03-23T10:34:31;3.20;;;1.50;;
75550;SDS011;65071;53.082;18.218;2023-03-23T10:37:12;2.90;;;1.30;;
75550;SDS011;65071;53.082;18.218;2023-03-23T10:39:46;1.70;;;1.10;;
75550;SDS011;65071;53.082;18.218;2023-03-23T10:42:27;5.40;;;1.30;;
75550;SDS011;65071;53.082;18.218;2023-03-23T10:44:56;3.20;;;1.20;;
75550;SDS011;65071;53.082;18.218;2023-03-23T10:47:26;3.20;;;1.40;;
75550;SDS011;65071;53.082;18.218;2023-03-23T10:49:58;1.50;;;1.10;;
75550;SDS011;65071;53.082;18.218;2023-03-23T10:52:38;2.10;;;1.30;;
75550;SDS011;65071;53.082;18.218;2023-03-23T10:55:11;2.20;;;1.10;;
75550;SDS011;65071;53.082;18.218;2023-03-23T10:57:44;2.40;;;1.30;;
75550;SDS011;65071;53.082;18.218;2023-03-23T11:02:45;2.70;;;1.20;;
75550;SDS011;65071;53.082;18.218;2023-03-23T11:05:23;2.60;;;1.70;;
75550;SDS011;65071;53.082;18.218;2023-03-23T11:07:55;2.20;;;1.60;;
75550;SDS011;65071;53.082;18.218;2023-03-23T11:13:16;2.20;;;1.50;;
75550;SDS011;65071;53.082;18.218;2023-03-23T11:15:44;3.10;;;1.70;;
75550;SDS011;65071;53.082;18.218;2023-03-23T11:18:18;2.90;;;1.30;;
75550;SDS011;65071;53.082;18.218;2023-03-23T11:20:47;2.50;;;1.60;;
75550;SDS011;65071;53.082;18.218;2023-03-23T11:23:24;3.30;;;1.60;;
75550;SDS011;65071;53.082;18.218;2023-03-23T11:26:15;2.40;;;1.50;;
75550;SDS011;65071;53.082;18.218;2023-03-23T11:28:59;1.70;;;1.40;;
75550;SDS011;65071;53.082;18.218;2023-03-23T11:31:33;2.00;;;1.30;;
75550;SDS011;65071;53.082;18.218;2023-03-23T11:34:03;2.50;;;1.70;;
75550;SDS011;65071;53.082;18.218;2023-03-23T11:39:32;1.90;;;1.30;;
75550;SDS011;65071;53.082;18.218;2023-03-23T11:42:17;2.60;;;1.30;;
75550;SDS011;65071;53.082;18.218;2023-03-23T11:44:45;1.70;;;1.20;;
75550;SDS011;65071;53.082;18.218;2023-03-23T11:47:27;2.50;;;1.20;;
75550;SDS011;65071;53.082;18.218;2023-03-23T11:52:47;2.10;;;1.50;;
75550;SDS011;65071;53.082;18.218;2023-03-23T11:55:20;3.80;;;1.70;;
75550;SDS011;65071;53.082;18.218;2023-03-23T11:57:52;2.40;;;1.40;;
75550;SDS011;65071;53.082;18.218;2023-03-23T12:00:22;1.80;;;1.30;;
75550;SDS011;65071;53.082;18.218;2023-03-23T12:02:55;1.60;;;1.20;;
75550;SDS011;65071;53.082;18.218;2023-03-23T12:05:59;2.30;;;1.30;;
75550;SDS011;65071;53.082;18.218;2023-03-23T12:08:32;2.10;;;1.40;;
75550;SDS011;65071;53.082;18.218;2023-03-23T12:13:59;1.70;;;1.10;;
75550;SDS011;65071;53.082;18.218;2023-03-23T12:19:15;2.00;;;1.10;;
75550;SDS011;65071;53.082;18.218;2023-03-23T12:32:46;2.50;;;1.10;;
75550;SDS011;65071;53.082;18.218;2023-03-23T12:35:29;1.30;;;1.00;;
75550;SDS011;65071;53.082;18.218;2023-03-23T12:38:12;1.90;;;0.70;;
75550;SDS011;65071;53.082;18.218;2023-03-23T12:43:26;2.30;;;1.10;;
75550;SDS011;65071;53.082;18.218;2023-03-23T12:46:09;1.10;;;0.90;;
75550;SDS011;65071;53.082;18.218;2023-03-23T12:48:41;2.30;;;1.40;;
75550;SDS011;65071;53.082;18.218;2023-03-23T12:51:35;1.70;;;1.10;;
75550;SDS011;65071;53.082;18.218;2023-03-23T12:56:52;2.30;;;1.10;;
75550;SDS011;65071;53.082;18.218;2023-03-23T13:04:55;2.60;;;1.30;;
75550;SDS011;65071;53.082;18.218;2023-03-23T13:07:39;2.40;;;1.70;;
75550;SDS011;65071;53.082;18.218;2023-03-23T13:12:56;2.50;;;1.40;;
75550;SDS011;65071;53.082;18.218;2023-03-23T13:15:41;3.00;;;1.60;;
75550;SDS011;65071;53.082;18.218;2023-03-23T13:23:51;3.30;;;1.30;;
75550;SDS011;65071;53.082;18.218;2023-03-23T13:26:23;4.60;;;1.60;;
75550;SDS011;65071;53.082;18.218;2023-03-23T13:31:22;3.20;;;1.50;;
75550;SDS011;65071;53.082;18.218;2023-03-23T13:33:53;2.10;;;1.40;;
75550;SDS011;65071;53.082;18.218;2023-03-23T13:39:28;2.50;;;1.50;;
75550;SDS011;65071;53.082;18.218;2023-03-23T13:44:26;2.30;;;1.40;;
75550;SDS011;65071;53.082;18.218;2023-03-23T13:47:08;2.10;;;1.30;;
75550;SDS011;65071;53.082;18.218;2023-03-23T13:49:45;2.30;;;1.30;;
75550;SDS011;65071;53.082;18.218;2023-03-23T13:52:45;3.30;;;1.20;;
75550;SDS011;65071;53.082;18.218;2023-03-23T13:55:29;1.40;;;1.20;;
75550;SDS011;65071;53.082;18.218;2023-03-23T14:03:16;3.80;;;2.00;;
75550;SDS011;65071;53.082;18.218;2023-03-23T14:05:49;2.80;;;1.70;;
75550;SDS011;65071;53.082;18.218;2023-03-23T14:10:58;2.70;;;2.30;;
75550;SDS011;65071;53.082;18.218;2023-03-23T14:13:31;2.80;;;1.40;;
75550;SDS011;65071;53.082;18.218;2023-03-23T14:16:03;2.80;;;1.40;;
75550;SDS011;65071;53.082;18.218;2023-03-23T14:18:36;2.50;;;1.60;;
75550;SDS011;65071;53.082;18.218;2023-03-23T14:21:05;4.40;;;1.20;;
75550;SDS011;65071;53.082;18.218;2023-03-23T14:23:39;2.50;;;1.60;;
75550;SDS011;65071;53.082;18.218;2023-03-23T14:26:10;1.90;;;1.30;;
75550;SDS011;65071;53.082;18.218;2023-03-23T14:28:43;3.50;;;1.30;;
75550;SDS011;65071;53.082;18.218;2023-03-23T14:31:14;2.10;;;1.50;;
75550;SDS011;65071;53.082;18.218;2023-03-23T14:33:48;1.60;;;1.20;;
75550;SDS011;65071;53.082;18.218;2023-03-23T14:36:19;2.30;;;1.20;;
75550;SDS011;65071;53.082;18.218;2023-03-23T14:38:49;1.40;;;1.20;;
75550;SDS011;65071;53.082;18.218;2023-03-23T14:43:50;3.00;;;1.20;;
75550;SDS011;65071;53.082;18.218;2023-03-23T14:46:16;1.80;;;1.20;;
75550;SDS011;65071;53.082;18.218;2023-03-23T14:48:43;2.10;;;1.50;;
75550;SDS011;65071;53.082;18.218;2023-03-23T14:51:18;2.30;;;1.40;;
75550;SDS011;65071;53.082;18.218;2023-03-23T14:53:46;2.20;;;1.30;;
75550;SDS011;65071;53.082;18.218;2023-03-23T14:56:18;1.60;;;1.40;;
75550;SDS011;65071;53.082;18.218;2023-03-23T14:58:49;1.80;;;1.20;;
75550;SDS011;65071;53.082;18.218;2023-03-23T15:03:56;3.80;;;1.90;;
75550;SDS011;65071;53.082;18.218;2023-03-23T15:06:28;1.90;;;1.20;;
75550;SDS011;65071;53.082;18.218;2023-03-23T15:08:59;1.90;;;1.50;;
75550;SDS011;65071;53.082;18.218;2023-03-23T15:11:30;3.20;;;1.40;;
75550;SDS011;65071;53.082;18.218;2023-03-23T15:14:00;3.40;;;1.70;;
75550;SDS011;65071;53.082;18.218;2023-03-23T15:16:34;4.10;;;1.80;;
75550;SDS011;65071;53.082;18.218;2023-03-23T15:19:03;2.10;;;1.50;;
75550;SDS011;65071;53.082;18.218;2023-03-23T15:21:33;3.70;;;1.60;;
75550;SDS011;65071;53.082;18.218;2023-03-23T15:24:02;1.80;;;1.40;;
75550;SDS011;65071;53.082;18.218;2023-03-23T15:26:45;1.90;;;1.20;;
75550;SDS011;65071;53.082;18.218;2023-03-23T15:29:16;2.30;;;1.50;;
75550;SDS011;65071;53.082;18.218;2023-03-23T15:31:46;2.30;;;1.40;;
75550;SDS011;65071;53.082;18.218;2023-03-23T15:34:29;2.10;;;1.10;;
75550;SDS011;65071;53.082;18.218;2023-03-23T15:37:15;2.90;;;1.60;;
75550;SDS011;65071;53.082;18.218;2023-03-23T15:39:46;2.80;;;1.50;;
75550;SDS011;65071;53.082;18.218;2023-03-23T15:42:21;1.40;;;1.30;;
75550;SDS011;65071;53.082;18.218;2023-03-23T15:45:20;3.50;;;1.80;;
75550;SDS011;65071;53.082;18.218;2023-03-23T15:47:51;3.40;;;2.40;;
75550;SDS011;65071;53.082;18.218;2023-03-23T15:50:20;3.50;;;2.20;;
75550;SDS011;65071;53.082;18.218;2023-03-23T15:53:00;4.20;;;2.00;;
75550;SDS011;65071;53.082;18.218;2023-03-23T15:55:37;3.60;;;1.60;;
75550;SDS011;65071;53.082;18.218;2023-03-23T15:58:08;3.60;;;2.20;;
75550;SDS011;65071;53.082;18.218;2023-03-23T16:00:37;2.50;;;1.50;;
75550;SDS011;65071;53.082;18.218;2023-03-23T16:03:06;3.40;;;1.60;;
75550;SDS011;65071;53.082;18.218;2023-03-23T16:05:36;2.00;;;1.50;;
75550;SDS011;65071;53.082;18.218;2023-03-23T16:08:04;2.20;;;1.70;;
75550;SDS011;65071;53.082;18.218;2023-03-23T16:10:31;3.00;;;2.00;;
75550;SDS011;65071;53.082;18.218;2023-03-23T16:12:58;2.30;;;1.40;;
75550;SDS011;65071;53.082;18.218;2023-03-23T16:15:24;2.50;;;1.50;;
75550;SDS011;65071;53.082;18.218;2023-03-23T16:17:51;2.50;;;1.60;;
75550;SDS011;65071;53.082;18.218;2023-03-23T16:20:20;3.10;;;1.80;;
75550;SDS011;65071;53.082;18.218;2023-03-23T16:22:49;3.30;;;2.00;;
75550;SDS011;65071;53.082;18.218;2023-03-23T16:25:17;4.00;;;2.40;;
75550;SDS011;65071;53.082;18.218;2023-03-23T16:27:45;4.50;;;2.20;;
75550;SDS011;65071;53.082;18.218;2023-03-23T16:30:17;8.10;;;4.00;;
75550;SDS011;65071;53.082;18.218;2023-03-23T16:32:44;5.50;;;3.00;;
75550;SDS011;65071;53.082;18.218;2023-03-23T16:35:12;5.70;;;3.10;;
75550;SDS011;65071;53.082;18.218;2023-03-23T16:37:47;8.60;;;4.10;;
75550;SDS011;65071;53.082;18.218;2023-03-23T16:40:15;6.10;;;3.40;;
75550;SDS011;65071;53.082;18.218;2023-03-23T16:42:43;5.50;;;2.90;;
75550;SDS011;65071;53.082;18.218;2023-03-23T16:45:10;4.40;;;2.80;;